Time;durP1;ratioP1;P1;durP2;ratioP2;P2;SDS_P1;SDS_P2;PMS_P1;PMS_P2;Temp;Humidity;BMP_temperature;BMP_pressure;BME280_temperature;BME280_humidity;BME280_pressure;Samples;Min_cycle;Max_cycle;Signal;HPM_P1;HPM_P2
2022/08/28 00:01:58;;;;;;;;;;;;;;;29.23;40.50;94114.25;4950131;29;7028;-60
2022/08/28 00:04:41;;;;;;;;;;;;;;;29.21;40.73;94116.81;4949173;28;7539;-60
2022/08/28 00:07:38;;;;;;;;;;;;;;;29.23;40.56;94114.25;4947610;28;7192;-60
2022/08/28 00:10:10;;;;;;;;;;;;;;;29.19;41.06;94119.41;4911207;29;7326;-60
2022/08/28 00:12:50;;;;;;;;;;;;;;;29.21;40.87;94122.38;4912756;29;9518;-60
2022/08/28 00:15:26;;;;;;;;;;;;;;;29.20;40.38;94118.84;4914462;29;7435;-60
2022/08/28 00:18:04;;;;;;;;;;;;;;;29.20;40.75;94120.88;4897858;29;7049;-60
2022/08/28 00:20:38;;;;;;;;;;;;;;;29.19;40.63;94113.84;4896304;29;6975;-59
2022/08/28 00:23:08;;;;;;;;;;;;;;;29.17;40.14;94117.16;4915578;29;7344;-60
2022/08/28 00:25:48;;;;;;;;;;;;;;;29.17;40.57;94113.66;4897812;29;9363;-60
2022/08/28 00:28:14;;;;;;;;;;;;;;;29.16;40.11;94115.66;4885377;29;7449;-60
2022/08/28 00:30:45;;;;;;;;;;;;;;;29.16;40.75;94114.91;4899109;29;7381;-59
2022/08/28 00:33:37;;;;;;;;;;;;;;;29.14;40.25;94106.38;4913529;29;7211;-59
2022/08/28 00:36:12;;;;;;;;;;;;;;;29.13;40.99;94097.31;4925620;28;7205;-59
2022/08/28 00:38:44;;;;;;;;;;;;;;;29.15;40.38;94107.84;4916810;28;7618;-60
2022/08/28 00:41:58;;;;;;;;;;;;;;;29.16;40.26;94101.03;4945583;28;7180;-60
2022/08/28 00:44:27;;;;;;;;;;;;;;;29.15;40.09;94105.09;4954530;28;6864;-60
2022/08/28 00:46:56;;;;;;;;;;;;;;;29.14;40.40;94096.06;4954720;28;7582;-60
2022/08/28 00:49:31;;;;;;;;;;;;;;;29.14;40.67;94106.38;4952555;28;7232;-59
2022/08/28 00:52:11;;;;;;;;;;;;;;;29.12;40.32;94104.16;4958385;28;6928;-60
2022/08/28 00:54:59;;;;;;;;;;;;;;;29.12;39.87;94108.97;4967722;28;7234;-60
2022/08/28 00:57:47;;;;;;;;;;;;;;;29.09;40.41;94100.44;4973281;28;7418;-60
2022/08/28 01:00:42;;;;;;;;;;;;;;;29.10;40.48;94107.47;4986503;28;7620;-60
2022/08/28 01:03:08;;;;;;;;;;;;;;;29.10;40.02;94101.19;4915482;29;7170;-60
2022/08/28 01:05:49;;;;;;;;;;;;;;;29.10;40.06;94101.19;4932796;28;7507;-60
2022/08/28 01:08:19;;;;;;;;;;;;;;;29.09;40.27;94100.44;4927605;29;7446;-60
2022/08/28 01:11:02;;;;;;;;;;;;;;;29.07;40.46;94100.25;4927543;28;7202;-60
2022/08/28 01:14:01;;;;;;;;;;;;;;;29.08;40.39;94098.19;4917972;29;7220;-60
2022/08/28 01:16:36;;;;;;;;;;;;;;;29.06;40.23;94090.44;4883132;29;7251;-60
2022/08/28 01:19:37;;;;;;;;;;;;;;;29.06;40.26;94100.78;4896629;29;7283;-60
2022/08/28 01:22:19;;;;;;;;;;;;;;;29.04;40.46;94101.31;4839348;29;8504;-60
2022/08/28 01:25:18;;;;;;;;;;;;;;;29.04;40.23;94093.00;4849518;29;7240;-60
2022/08/28 01:27:57;;;;;;;;;;;;;;;29.03;40.97;94094.31;4827319;29;7248;-60
2022/08/28 01:30:30;;;;;;;;;;;;;;;29.02;40.91;94094.84;4863248;29;7197;-60
2022/08/28 01:33:08;;;;;;;;;;;;;;;29.02;40.42;94092.06;4840621;29;9283;-60
2022/08/28 01:35:46;;;;;;;;;;;;;;;29.00;40.51;94092.63;4828903;29;9700;-60
2022/08/28 01:38:33;;;;;;;;;;;;;;;28.98;40.75;94089.66;4838912;29;7227;-60
2022/08/28 01:41:17;;;;;;;;;;;;;;;28.98;40.36;94095.19;4865557;29;6964;-60
2022/08/28 01:43:52;;;;;;;;;;;;;;;28.98;40.52;94095.19;4858022;29;7687;-60
2022/08/28 01:46:20;;;;;;;;;;;;;;;28.98;39.80;94089.66;4858785;29;7383;-60
2022/08/28 01:48:47;;;;;;;;;;;;;;;28.96;40.34;94097.00;4858844;29;7827;-59
2022/08/28 01:51:16;;;;;;;;;;;;;;;28.96;40.67;94091.47;4863928;29;9379;-60
2022/08/28 01:53:52;;;;;;;;;;;;;;;28.96;40.20;94088.69;4878471;29;7184;-60
2022/08/28 01:56:43;;;;;;;;;;;;;;;28.96;40.41;94088.69;4888942;29;9471;-60
2022/08/28 01:59:14;;;;;;;;;;;;;;;28.94;41.07;94089.25;4923846;28;7069;-60
2022/08/28 02:01:51;;;;;;;;;;;;;;;28.95;40.50;94089.97;4929268;28;7880;-60
2022/08/28 02:04:25;;;;;;;;;;;;;;;28.94;40.07;94089.25;4949857;28;6994;-60
2022/08/28 02:06:54;;;;;;;;;;;;;;;28.93;40.77;94093.28;4993899;28;7250;-59
2022/08/28 02:09:20;;;;;;;;;;;;;;;28.92;40.67;94086.28;4990815;28;7656;-59
2022/08/28 02:11:57;;;;;;;;;;;;;;;28.93;40.07;94087.00;4992065;28;7309;-60
2022/08/28 02:14:25;;;;;;;;;;;;;;;28.92;40.28;94091.06;4986562;28;7028;-60
2022/08/28 02:16:55;;;;;;;;;;;;;;;28.91;40.18;94097.88;5006065;28;6989;-60
2022/08/28 02:19:25;;;;;;;;;;;;;;;28.91;40.46;94097.88;5004609;28;7243;-60
2022/08/28 02:22:07;;;;;;;;;;;;;;;28.90;40.17;94101.94;5007818;28;9268;-59
2022/08/28 02:25:08;;;;;;;;;;;;;;;28.91;41.05;94101.38;5008274;28;7274;-59
2022/08/28 02:27:35;;;;;;;;;;;;;;;28.91;40.18;94097.88;4948515;28;7036;-60
2022/08/28 02:30:06;;;;;;;;;;;;;;;28.89;40.77;94092.88;4932426;28;8432;-59
2022/08/28 02:32:32;;;;;;;;;;;;;;;28.87;40.56;94091.94;4943474;28;8693;-60
2022/08/28 02:34:59;;;;;;;;;;;;;;;28.87;40.95;94086.38;4950991;28;7301;-60
2022/08/28 02:37:28;;;;;;;;;;;;;;;28.86;40.30;94099.47;4949513;28;7465;-60
2022/08/28 02:39:55;;;;;;;;;;;;;;;28.86;40.93;94096.72;4935527;28;8196;-60
2022/08/28 02:42:29;;;;;;;;;;;;;;;28.86;40.78;94090.47;4951931;28;7606;-59
2022/08/28 02:45:37;;;;;;;;;;;;;;;28.85;40.44;94095.25;4944782;28;6997;-60
2022/08/28 02:48:04;;;;;;;;;;;;;;;28.85;40.28;94091.72;4934718;28;7380;-59
2022/08/28 02:50:32;;;;;;;;;;;;;;;28.84;40.42;94090.25;4950536;28;7336;-60
2022/08/28 02:53:00;;;;;;;;;;;;;;;28.84;40.84;94090.97;4934538;28;7554;-60
2022/08/28 02:55:28;;;;;;;;;;;;;;;28.80;40.33;94090.56;4950912;28;8781;-59
2022/08/28 02:58:05;;;;;;;;;;;;;;;28.80;40.79;94090.56;4929284;28;7148;-60
2022/08/28 03:00:38;;;;;;;;;;;;;;;28.79;40.46;94091.13;4938083;28;7735;-60
2022/08/28 03:03:33;;;;;;;;;;;;;;;28.79;40.77;94080.06;5008416;28;7416;-60
2022/08/28 03:06:14;;;;;;;;;;;;;;;28.78;41.02;94093.13;4989034;28;7952;-60
2022/08/28 03:09:11;;;;;;;;;;;;;;;28.76;40.90;94092.94;4983436;28;7392;-60
2022/08/28 03:11:45;;;;;;;;;;;;;;;28.74;40.61;94092.75;4932633;29;7215;-60
2022/08/28 03:14:12;;;;;;;;;;;;;;;28.73;40.25;94090.50;4933558;28;7459;-59
2022/08/28 03:16:50;;;;;;;;;;;;;;;28.73;40.49;94084.97;4950861;28;9016;-60
2022/08/28 03:19:24;;;;;;;;;;;;;;;28.72;40.38;94083.47;4932594;28;7214;-60
2022/08/28 03:22:06;;;;;;;;;;;;;;;28.72;40.32;94080.72;4935725;28;7261;-60
2022/08/28 03:24:33;;;;;;;;;;;;;;;28.73;40.62;94082.22;4949767;28;7550;-60
2022/08/28 03:27:03;;;;;;;;;;;;;;;28.71;40.18;94085.50;4938187;28;7329;-60
2022/08/28 03:29:29;;;;;;;;;;;;;;;28.69;40.72;94084.53;4931746;28;7091;-59
2022/08/28 03:32:12;;;;;;;;;;;;;;;28.70;40.36;94086.03;4948387;28;7784;-60
2022/08/28 03:34:40;;;;;;;;;;;;;;;28.70;40.29;94084.03;4934339;28;9662;-60
2022/08/28 03:37:06;;;;;;;;;;;;;;;28.70;40.56;94086.78;4946114;28;9479;-60
2022/08/28 03:39:36;;;;;;;;;;;;;;;28.73;40.56;94085.69;4949480;28;7248;-60
2022/08/28 03:42:11;;;;;;;;;;;;;;;28.75;40.67;94093.50;4950087;28;7404;-59
2022/08/28 03:44:52;;;;;;;;;;;;;;;28.77;40.73;94096.47;4951784;28;9319;-60
2022/08/28 03:47:19;;;;;;;;;;;;;;;28.78;40.04;94095.91;4943262;28;7206;-60
2022/08/28 03:49:45;;;;;;;;;;;;;;;28.78;40.18;94098.69;4990311;28;9757;-60
2022/08/28 03:52:38;;;;;;;;;;;;;;;28.79;40.08;94102.94;4992601;28;7193;-60
2022/08/28 03:55:08;;;;;;;;;;;;;;;28.78;40.28;94101.44;4934415;29;7633;-60
2022/08/28 03:57:55;;;;;;;;;;;;;;;28.81;39.96;94103.16;4949687;28;9138;-60
2022/08/28 04:00:21;;;;;;;;;;;;;;;28.81;40.21;94102.41;4932185;29;9604;-60
2022/08/28 04:02:48;;;;;;;;;;;;;;;28.82;40.44;94092.78;4929718;29;7387;-60
2022/08/28 04:05:21;;;;;;;;;;;;;;;28.81;40.14;94089.31;4929740;29;7715;-60
2022/08/28 04:07:47;;;;;;;;;;;;;;;28.80;40.61;94098.13;4948389;29;7092;-60
2022/08/28 04:10:15;;;;;;;;;;;;;;;28.79;40.25;94086.34;4933227;29;7028;-60
2022/08/28 04:12:52;;;;;;;;;;;;;;;28.82;40.79;94101.84;4950393;29;9207;-60
2022/08/28 04:15:20;;;;;;;;;;;;;;;28.83;40.27;94100.56;4930524;29;7916;-59
2022/08/28 04:17:55;;;;;;;;;;;;;;;28.82;40.43;94096.31;4935372;28;8251;-60
2022/08/28 04:20:23;;;;;;;;;;;;;;;28.82;40.50;94084.50;4944850;28;9239;-60
2022/08/28 04:22:50;;;;;;;;;;;;;;;28.82;40.81;94096.31;4948353;29;9257;-60
2022/08/28 04:25:21;;;;;;;;;;;;;;;28.83;40.84;94094.28;4945866;29;7325;-60
2022/08/28 04:28:32;;;;;;;;;;;;;;;28.83;40.80;94097.06;4951248;28;7224;-60
2022/08/28 04:31:01;;;;;;;;;;;;;;;28.82;40.46;94098.34;4845843;29;7276;-60
2022/08/28 04:33:31;;;;;;;;;;;;;;;28.82;40.45;94104.63;4895621;29;6999;-60
2022/08/28 04:36:03;;;;;;;;;;;;;;;28.82;40.39;94109.41;4875328;29;7015;-60
2022/08/28 04:38:32;;;;;;;;;;;;;;;28.82;40.57;94103.88;4906187;29;7525;-60
2022/08/28 04:41:00;;;;;;;;;;;;;;;28.77;41.02;94099.97;4890635;29;9004;-60
2022/08/28 04:43:38;;;;;;;;;;;;;;;28.83;41.00;94106.13;4892944;29;7133;-60
2022/08/28 04:46:12;;;;;;;;;;;;;;;28.81;41.13;94107.94;4875840;29;7529;-61
2022/08/28 04:48:41;;;;;;;;;;;;;;;28.80;40.81;94117.50;4891152;29;7194;-60
2022/08/28 04:51:09;;;;;;;;;;;;;;;28.80;41.60;94123.78;4905699;29;7351;-60
2022/08/28 04:53:44;;;;;;;;;;;;;;;28.81;41.04;94121.78;4894392;29;7100;-60
2022/08/28 04:56:13;;;;;;;;;;;;;;;28.78;41.12;94120.06;4883285;29;7230;-60
2022/08/28 04:58:50;;;;;;;;;;;;;;;28.76;40.73;94123.38;4893911;29;7185;-60
2022/08/28 05:01:19;;;;;;;;;;;;;;;28.76;40.88;94126.16;4877029;29;6974;-60
2022/08/28 05:04:11;;;;;;;;;;;;;;;28.79;40.77;94124.34;4893750;29;6990;-60
2022/08/28 05:06:44;;;;;;;;;;;;;;;28.80;40.74;94123.03;4909240;28;7064;-60
2022/08/28 05:09:17;;;;;;;;;;;;;;;28.79;40.70;94125.09;4989818;28;7319;-60
2022/08/28 05:11:52;;;;;;;;;;;;;;;28.79;40.99;94130.63;5011065;28;7794;-60
2022/08/28 05:14:20;;;;;;;;;;;;;;;28.80;41.21;94129.31;5012170;28;7037;-60
2022/08/28 05:17:11;;;;;;;;;;;;;;;28.82;41.27;94137.09;4989483;28;7184;-60
2022/08/28 05:19:55;;;;;;;;;;;;;;;28.82;41.00;94137.09;4989393;28;7616;-60
2022/08/28 05:22:31;;;;;;;;;;;;;;;28.80;41.36;94137.63;5007562;28;9360;-61
2022/08/28 05:24:59;;;;;;;;;;;;;;;28.80;41.73;94143.16;5011714;28;7222;-60
2022/08/28 05:27:27;;;;;;;;;;;;;;;28.82;41.34;94148.16;4982390;28;7238;-60
2022/08/28 05:30:01;;;;;;;;;;;;;;;28.81;41.58;94147.44;4987178;28;7711;-60
2022/08/28 05:32:31;;;;;;;;;;;;;;;28.82;41.51;94146.13;4987152;28;7262;-60
2022/08/28 05:35:06;;;;;;;;;;;;;;;28.83;41.88;94155.94;4998022;28;7276;-60
2022/08/28 05:38:02;;;;;;;;;;;;;;;28.84;41.49;94151.88;4976784;28;8514;-60
2022/08/28 05:40:44;;;;;;;;;;;;;;;28.81;41.58;94157.75;4933652;28;7418;-60
2022/08/28 05:43:24;;;;;;;;;;;;;;;28.76;41.46;94153.84;4934547;28;7484;-60
2022/08/28 05:46:09;;;;;;;;;;;;;;;28.75;40.97;94157.16;4936978;28;6993;-60
2022/08/28 05:48:38;;;;;;;;;;;;;;;28.70;41.57;94158.75;4949679;28;7271;-60
2022/08/28 05:51:06;;;;;;;;;;;;;;;28.71;41.22;94160.22;4947536;28;8457;-60
2022/08/28 05:53:43;;;;;;;;;;;;;;;28.68;41.37;94168.88;4947875;28;8357;-61
2022/08/28 05:56:28;;;;;;;;;;;;;;;28.68;41.46;94171.63;4953203;28;6905;-60
2022/08/28 05:58:59;;;;;;;;;;;;;;;28.67;41.16;94170.88;4948116;28;7201;-60
2022/08/28 06:01:44;;;;;;;;;;;;;;;28.66;41.36;94174.19;4949398;28;7033;-60
2022/08/28 06:04:23;;;;;;;;;;;;;;;28.65;41.55;94175.47;4937108;28;7369;-60
2022/08/28 06:07:18;;;;;;;;;;;;;;;28.63;41.71;94181.56;4951251;28;7433;-60
2022/08/28 06:09:55;;;;;;;;;;;;;;;28.62;41.76;94177.31;4934835;28;8195;-60
2022/08/28 06:12:31;;;;;;;;;;;;;;;28.60;41.97;94177.06;4950384;28;7072;-60
2022/08/28 06:15:17;;;;;;;;;;;;;;;28.60;41.29;94188.16;4936100;28;7307;-60
2022/08/28 06:17:49;;;;;;;;;;;;;;;28.60;41.59;94182.59;4969797;28;9653;-59
2022/08/28 06:20:29;;;;;;;;;;;;;;;28.60;41.33;94190.91;5002770;28;7346;-60
2022/08/28 06:23:21;;;;;;;;;;;;;;;28.59;41.72;94181.13;4985937;28;7273;-60
2022/08/28 06:26:17;;;;;;;;;;;;;;;28.60;41.72;94184.66;4966155;28;7796;-60
2022/08/28 06:28:53;;;;;;;;;;;;;;;28.60;42.12;94188.16;4945482;28;8751;-60
2022/08/28 06:31:24;;;;;;;;;;;;;;;28.62;42.47;94187.63;4926798;28;7363;-60
2022/08/28 06:33:50;;;;;;;;;;;;;;;28.65;42.15;94190.06;4945477;28;7234;-60
2022/08/28 06:36:33;;;;;;;;;;;;;;;28.67;43.27;94195.81;4943622;28;7198;-60
2022/08/28 06:39:01;;;;;;;;;;;;;;;28.70;42.99;94194.00;4945888;28;7601;-60
2022/08/28 06:41:41;;;;;;;;;;;;;;;28.70;42.41;94194.75;4947666;28;9462;-60
2022/08/28 06:44:21;;;;;;;;;;;;;;;28.70;42.51;94196.75;4944971;28;7587;-60
2022/08/28 06:46:57;;;;;;;;;;;;;;;28.68;42.34;94197.31;4949127;28;9080;-60
2022/08/28 06:49:28;;;;;;;;;;;;;;;28.70;42.27;94199.53;4932692;28;7164;-60
2022/08/28 06:51:56;;;;;;;;;;;;;;;28.69;42.00;94198.78;4930555;28;7554;-60
2022/08/28 06:54:33;;;;;;;;;;;;;;;28.69;41.82;94200.78;4932750;28;7673;-60
2022/08/28 06:57:03;;;;;;;;;;;;;;;28.68;42.07;94204.84;4945661;28;7282;-60
2022/08/28 06:59:38;;;;;;;;;;;;;;;28.67;42.32;94200.59;4945111;28;7574;-60
2022/08/28 07:02:04;;;;;;;;;;;;;;;28.66;42.43;94208.16;4944804;28;6929;-60
2022/08/28 07:04:36;;;;;;;;;;;;;;;28.65;42.85;94209.44;4939083;28;7094;-60
2022/08/28 07:07:18;;;;;;;;;;;;;;;28.67;42.66;94214.41;4999648;28;7029;-60
2022/08/28 07:09:46;;;;;;;;;;;;;;;28.69;42.13;94218.16;4999766;28;7330;-60
2022/08/28 07:12:16;;;;;;;;;;;;;;;28.68;41.99;94215.91;4983460;28;7298;-60
2022/08/28 07:14:50;;;;;;;;;;;;;;;28.66;42.35;94222.00;4981964;28;7181;-60
2022/08/28 07:17:48;;;;;;;;;;;;;;;28.66;42.80;94213.69;5004160;28;7232;-60
2022/08/28 07:20:16;;;;;;;;;;;;;;;28.65;42.39;94217.72;4950790;28;7917;-60
2022/08/28 07:22:43;;;;;;;;;;;;;;;28.66;42.22;94224.03;4965408;28;7912;-60
2022/08/28 07:25:10;;;;;;;;;;;;;;;28.67;42.60;94215.16;4961620;28;9363;-60
2022/08/28 07:27:47;;;;;;;;;;;;;;;28.68;42.15;94215.91;4968720;28;7270;-60
2022/08/28 07:30:16;;;;;;;;;;;;;;;28.66;42.11;94224.78;4956402;28;7914;-60
2022/08/28 07:32:48;;;;;;;;;;;;;;;28.67;42.54;94215.16;4970055;28;8842;-60
2022/08/28 07:35:16;;;;;;;;;;;;;;;28.67;41.75;94226.25;4967396;28;9733;-60
2022/08/28 07:38:01;;;;;;;;;;;;;;;28.68;42.61;94224.22;4963893;28;8556;-60
2022/08/28 07:40:51;;;;;;;;;;;;;;;28.67;41.99;94226.25;4970296;28;7305;-60
2022/08/28 07:46:43;;;;;;;;;;;;;;;28.67;42.32;94231.78;4969565;28;9621;-60
2022/08/28 07:49:17;;;;;;;;;;;;;;;28.67;42.08;94225.50;4926245;29;7264;-60
2022/08/28 07:51:46;;;;;;;;;;;;;;;28.65;44.12;94239.13;4925610;29;7349;-61
2022/08/28 07:54:12;;;;;;;;;;;;;;;28.62;43.73;94238.19;4925919;29;7282;-60
2022/08/28 07:56:41;;;;;;;;;;;;;;;28.63;43.48;94239.66;4929875;29;7233;-60
2022/08/28 07:59:10;;;;;;;;;;;;;;;28.63;43.82;94238.91;4942465;28;9252;-60
2022/08/28 08:02:10;;;;;;;;;;;;;;;28.61;43.63;94250.53;4916703;29;8433;-60
2022/08/28 08:04:36;;;;;;;;;;;;;;;28.62;43.79;94242.97;4893883;29;7488;-59
2022/08/28 08:07:36;;;;;;;;;;;;;;;28.60;43.91;94249.03;4894094;29;8999;-59
2022/08/28 08:10:21;;;;;;;;;;;;;;;28.61;43.91;94247.75;4863721;29;7859;-60
2022/08/28 08:12:52;;;;;;;;;;;;;;;28.63;43.99;94244.44;4843871;29;7269;-60
2022/08/28 08:15:33;;;;;;;;;;;;;;;28.65;43.50;94239.13;4845268;29;7024;-60
2022/08/28 08:18:08;;;;;;;;;;;;;;;28.66;43.17;94243.41;4846295;29;7240;-60
2022/08/28 08:21:04;;;;;;;;;;;;;;;28.65;43.29;94250.94;4854128;29;7367;-60
2022/08/28 08:23:46;;;;;;;;;;;;;;;28.67;44.25;94251.16;4767192;29;7060;-60
2022/08/28 08:26:27;;;;;;;;;;;;;;;28.68;43.52;94246.38;4808587;29;7464;-60
2022/08/28 08:28:54;;;;;;;;;;;;;;;28.66;44.26;94255.22;4806124;29;8463;-60
2022/08/28 08:31:33;;;;;;;;;;;;;;;28.66;44.35;94252.44;4822536;29;7340;-60
2022/08/28 08:34:16;;;;;;;;;;;;;;;28.68;43.71;94254.66;4827209;29;9348;-59
2022/08/28 08:36:53;;;;;;;;;;;;;;;28.70;43.67;94263.19;4823285;29;7404;-60
2022/08/28 08:39:35;;;;;;;;;;;;;;;28.70;43.32;94257.66;4822412;29;7325;-59
2022/08/28 08:42:07;;;;;;;;;;;;;;;28.70;43.54;94252.13;4832933;29;7117;-60
2022/08/28 08:44:39;;;;;;;;;;;;;;;28.72;43.17;94260.63;4843903;29;7250;-60
2022/08/28 08:47:46;;;;;;;;;;;;;;;28.73;43.01;94251.06;4907645;29;7189;-60
2022/08/28 08:50:28;;;;;;;;;;;;;;;28.73;42.92;94256.59;4922458;29;7327;-60
2022/08/28 08:53:12;;;;;;;;;;;;;;;28.72;43.27;94258.59;4907741;29;6989;-59
2022/08/28 08:55:51;;;;;;;;;;;;;;;28.71;42.96;94262.63;4924662;28;9391;-60
2022/08/28 08:58:27;;;;;;;;;;;;;;;28.68;42.87;94255.41;4914182;29;7533;-61
2022/08/28 09:01:21;;;;;;;;;;;;;;;28.69;42.51;94256.91;4998944;28;7201;-61
2022/08/28 09:04:09;;;;;;;;;;;;;;;28.69;43.07;94256.91;4992243;28;9433;-61
2022/08/28 09:07:22;;;;;;;;;;;;;;;28.71;43.03;94259.16;5014013;28;7442;-61
2022/08/28 09:09:53;;;;;;;;;;;;;;;28.71;42.92;94259.88;4944782;28;7154;-61
2022/08/28 09:12:23;;;;;;;;;;;;;;;28.72;42.70;94266.91;4952528;28;7222;-61
2022/08/28 09:14:56;;;;;;;;;;;;;;;28.72;43.03;94266.16;4953621;28;7088;-61
2022/08/28 09:17:36;;;;;;;;;;;;;;;28.72;42.89;94272.44;4945080;28;6968;-61
2022/08/28 09:20:11;;;;;;;;;;;;;;;28.73;42.63;94273.91;4945243;28;7521;-61
2022/08/28 09:22:43;;;;;;;;;;;;;;;28.74;43.47;94275.41;4941598;28;7316;-61
2022/08/28 09:25:12;;;;;;;;;;;;;;;28.72;42.94;94277.97;4940805;28;7520;-61
2022/08/28 09:27:52;;;;;;;;;;;;;;;28.68;42.95;94274.78;4945587;28;7369;-61
2022/08/28 09:30:56;;;;;;;;;;;;;;;28.71;43.69;94276.47;4932189;28;7184;-61
2022/08/28 09:33:32;;;;;;;;;;;;;;;28.71;43.49;94273.72;4903621;29;7363;-60
2022/08/28 09:36:17;;;;;;;;;;;;;;;28.71;43.82;94268.19;4909359;29;7649;-61
2022/08/28 09:38:45;;;;;;;;;;;;;;;28.67;44.07;94267.75;4897182;29;7243;-61
2022/08/28 09:44:26;;;;;;;;;;;;;;;28.68;43.50;94271.28;4913160;29;7247;-61
2022/08/28 09:46:52;;;;;;;;;;;;;;;28.65;44.02;94275.09;4870832;29;7301;-61
2022/08/28 09:49:28;;;;;;;;;;;;;;;28.64;43.98;94265.31;4859807;29;7194;-61
2022/08/28 09:51:58;;;;;;;;;;;;;;;28.66;44.00;94271.81;4879425;29;7395;-61
2022/08/28 09:54:41;;;;;;;;;;;;;;;28.67;43.76;94269.78;4892301;29;7267;-61
2022/08/28 09:57:22;;;;;;;;;;;;;;;28.70;43.94;94272.25;4892026;29;7203;-61
2022/08/28 09:59:58;;;;;;;;;;;;;;;28.70;43.39;94275.00;4876313;29;9443;-61
2022/08/28 10:03:15;;;;;;;;;;;;;;;28.72;43.48;94277.22;4896136;29;7316;-61
2022/08/28 10:06:10;;;;;;;;;;;;;;;28.74;43.33;94274.66;4829976;29;9178;-61
2022/08/28 10:08:59;;;;;;;;;;;;;;;28.72;43.10;94271.69;4908517;29;7314;-61
2022/08/28 10:11:43;;;;;;;;;;;;;;;28.73;43.10;94271.16;4908265;29;7065;-61
2022/08/28 10:14:33;;;;;;;;;;;;;;;28.76;43.21;94272.09;4927664;28;7194;-61
2022/08/28 10:17:40;;;;;;;;;;;;;;;28.77;42.92;94279.16;4913010;29;7025;-60
2022/08/28 10:20:16;;;;;;;;;;;;;;;28.78;43.99;94275.84;4908445;29;8114;-60
2022/08/28 10:22:50;;;;;;;;;;;;;;;28.76;43.22;94270.09;4932101;28;9233;-60
2022/08/28 10:25:15;;;;;;;;;;;;;;;28.79;44.29;94269.03;4937622;28;9370;-60
2022/08/28 10:28:20;;;;;;;;;;;;;;;28.79;43.36;94265.50;4939129;28;7237;-60
2022/08/28 10:31:14;;;;;;;;;;;;;;;28.79;43.39;94271.81;4946060;28;8774;-60
2022/08/28 10:34:04;;;;;;;;;;;;;;;28.81;43.17;94266.47;4951611;28;7299;-60
2022/08/28 10:36:36;;;;;;;;;;;;;;;28.80;43.79;94273.28;4929432;28;7383;-60
2022/08/28 10:39:30;;;;;;;;;;;;;;;28.82;43.59;94269.97;4916894;29;7492;-60
2022/08/28 10:42:01;;;;;;;;;;;;;;;28.82;43.63;94273.47;4952872;28;9392;-60
2022/08/28 10:44:39;;;;;;;;;;;;;;;28.81;43.35;94271.25;5005990;28;9978;-61
2022/08/28 10:47:08;;;;;;;;;;;;;;;28.82;43.41;94269.97;4982621;28;7496;-60
2022/08/28 10:49:44;;;;;;;;;;;;;;;28.82;43.66;94276.25;4987310;28;7035;-61
2022/08/28 10:52:18;;;;;;;;;;;;;;;28.81;43.62;94266.47;5007382;28;8166;-60
2022/08/28 10:55:11;;;;;;;;;;;;;;;28.81;43.67;94274.78;4989277;28;9396;-60
2022/08/28 10:57:54;;;;;;;;;;;;;;;28.79;43.84;94271.81;4970575;28;7143;-61
2022/08/28 11:00:27;;;;;;;;;;;;;;;28.79;44.01;94282.88;4986323;28;9508;-60
2022/08/28 11:02:58;;;;;;;;;;;;;;;28.80;43.80;94270.50;5004848;28;7304;-61
2022/08/28 11:05:31;;;;;;;;;;;;;;;28.81;44.16;94274.78;4998289;28;7599;-61
2022/08/28 11:08:33;;;;;;;;;;;;;;;28.80;44.37;94273.28;5002185;28;9322;-61
2022/08/28 11:11:05;;;;;;;;;;;;;;;28.81;43.85;94274.78;5009321;28;7372;-61
2022/08/28 11:13:56;;;;;;;;;;;;;;;28.81;43.72;94269.25;4989472;28;7239;-60
2022/08/28 11:16:45;;;;;;;;;;;;;;;28.81;44.58;94274.03;4991469;28;7082;-61
2022/08/28 11:19:23;;;;;;;;;;;;;;;28.80;44.33;94267.75;5005337;28;7333;-61
2022/08/28 11:22:00;;;;;;;;;;;;;;;28.82;44.13;94273.47;4986262;28;7063;-61
2022/08/28 11:24:42;;;;;;;;;;;;;;;28.83;44.02;94277.00;4992268;28;7048;-60
2022/08/28 11:27:31;;;;;;;;;;;;;;;28.84;43.97;94282.00;4992495;28;9468;-61
2022/08/28 11:30:10;;;;;;;;;;;;;;;28.85;44.03;94277.22;5006494;28;7393;-61
2022/08/28 11:32:38;;;;;;;;;;;;;;;28.86;43.86;94271.13;5006479;28;7015;-61
2022/08/28 11:35:19;;;;;;;;;;;;;;;28.89;44.50;94275.59;5005156;28;9371;-61
2022/08/28 11:37:56;;;;;;;;;;;;;;;28.86;44.64;94268.34;4988394;28;7561;-61
2022/08/28 11:40:29;;;;;;;;;;;;;;;28.84;45.18;94279.22;4992409;28;7249;-60
2022/08/28 11:43:24;;;;;;;;;;;;;;;28.83;44.41;94274.22;4991449;28;7202;-61
2022/08/28 11:45:53;;;;;;;;;;;;;;;28.85;44.57;94274.44;5007258;28;7230;-61
2022/08/28 11:48:34;;;;;;;;;;;;;;;28.83;44.05;94277.75;5009381;28;7596;-61
2022/08/28 11:51:08;;;;;;;;;;;;;;;28.85;44.46;94285.50;5009688;28;8437;-60
2022/08/28 11:54:09;;;;;;;;;;;;;;;28.88;43.64;94278.91;4990265;28;9013;-60
2022/08/28 11:57:13;;;;;;;;;;;;;;;28.91;44.89;94284.13;5009603;28;7593;-60
2022/08/28 11:59:58;;;;;;;;;;;;;;;28.94;44.82;94280.28;5006755;28;6986;-60
2022/08/28 12:02:54;;;;;;;;;;;;;;;28.95;44.50;94287.31;5009547;28;9391;-60
2022/08/28 12:05:32;;;;;;;;;;;;;;;28.95;44.24;94281.00;4988069;28;7209;-60
2022/08/28 12:08:05;;;;;;;;;;;;;;;28.91;43.94;94281.34;5009069;28;9446;-60
2022/08/28 12:11:27;;;;;;;;;;;;;;;28.93;44.02;94284.31;4990567;28;8007;-60
2022/08/28 12:13:57;;;;;;;;;;;;;;;28.94;43.75;94276.78;5007839;28;7052;-60
2022/08/28 12:16:23;;;;;;;;;;;;;;;28.94;44.04;94277.53;4993890;28;7277;-60
2022/08/28 12:18:51;;;;;;;;;;;;;;;28.97;44.76;94279.19;4987891;28;9332;-59
2022/08/28 12:21:27;;;;;;;;;;;;;;;28.99;44.28;94275.91;5005339;28;7195;-60
2022/08/28 12:24:27;;;;;;;;;;;;;;;29.00;44.52;94280.16;4991720;28;7351;-60
2022/08/28 12:26:56;;;;;;;;;;;;;;;29.01;44.19;94279.63;4950849;28;7740;-61
2022/08/28 12:29:37;;;;;;;;;;;;;;;29.01;43.77;94278.88;4950235;28;7237;-61
2022/08/28 12:32:31;;;;;;;;;;;;;;;29.02;44.07;94275.56;4946612;28;7305;-60
2022/08/28 12:35:16;;;;;;;;;;;;;;;29.04;43.98;94281.31;4947543;28;9677;-61
2022/08/28 12:37:57;;;;;;;;;;;;;;;29.07;44.18;94271.19;4937892;28;9104;-60
2022/08/28 12:40:30;;;;;;;;;;;;;;;29.09;44.24;94277.69;4943716;28;7293;-60
2022/08/28 12:43:01;;;;;;;;;;;;;;;29.07;44.46;94274.72;4944300;28;7223;-60
2022/08/28 12:45:50;;;;;;;;;;;;;;;29.08;43.87;94276.19;4936821;28;6970;-60
2022/08/28 12:48:32;;;;;;;;;;;;;;;29.10;43.90;94275.69;4950687;28;7534;-60
2022/08/28 12:51:11;;;;;;;;;;;;;;;29.10;44.60;94265.31;4941678;28;7247;-60
2022/08/28 12:54:15;;;;;;;;;;;;;;;29.12;44.16;94262.03;4953815;28;7196;-60
2022/08/28 12:56:53;;;;;;;;;;;;;;;29.10;43.80;94270.13;4941818;28;7286;-60
2022/08/28 12:59:49;;;;;;;;;;;;;;;29.11;44.20;94263.31;4954868;28;6964;-61
2022/08/28 13:02:34;;;;;;;;;;;;;;;29.13;44.63;94262.75;4966232;28;6978;-60
2022/08/28 13:05:39;;;;;;;;;;;;;;;29.13;43.75;94262.75;5011838;28;6992;-60
2022/08/28 13:08:36;;;;;;;;;;;;;;;29.17;43.86;94266.72;4937846;28;7126;-60
2022/08/28 13:11:18;;;;;;;;;;;;;;;29.18;44.43;94261.94;4896844;29;8911;-60
2022/08/28 13:13:54;;;;;;;;;;;;;;;29.18;43.65;94256.38;4913696;29;7262;-61
2022/08/28 13:16:53;;;;;;;;;;;;;;;29.20;44.39;94259.34;4897632;29;6943;-60
2022/08/28 13:19:33;;;;;;;;;;;;;;;29.21;44.59;94253.28;4900145;29;10086;-61
2022/08/28 13:22:39;;;;;;;;;;;;;;;29.23;44.33;94252.75;4899008;29;7296;-60
2022/08/28 13:25:24;;;;;;;;;;;;;;;29.22;44.10;94254.78;4877609;29;7304;-61
2022/08/28 13:28:18;;;;;;;;;;;;;;;29.24;44.82;94248.69;4867517;29;7221;-61
2022/08/28 13:30:59;;;;;;;;;;;;;;;29.22;44.10;94240.91;4871075;29;8957;-60
2022/08/28 13:33:34;;;;;;;;;;;;;;;29.26;44.81;94248.88;4859221;29;7218;-60
2022/08/28 13:36:24;;;;;;;;;;;;;;;29.25;44.58;94244.66;4875653;29;7148;-60
2022/08/28 13:38:50;;;;;;;;;;;;;;;29.24;44.28;94243.16;4862191;29;9527;-60
2022/08/28 13:41:31;;;;;;;;;;;;;;;29.27;44.49;94239.31;4865730;29;7222;-60
2022/08/28 13:44:07;;;;;;;;;;;;;;;29.29;44.20;94245.81;4895717;29;9086;-60
2022/08/28 13:47:05;;;;;;;;;;;;;;;29.31;44.34;94232.16;4886293;29;7065;-61
2022/08/28 13:49:34;;;;;;;;;;;;;;;29.33;43.78;94234.38;4929122;28;7346;-60
2022/08/28 13:52:06;;;;;;;;;;;;;;;29.35;44.10;94234.56;4910598;29;7050;-60
2022/08/28 13:54:43;;;;;;;;;;;;;;;29.36;43.93;94233.31;4917457;29;7494;-60
2022/08/28 13:57:26;;;;;;;;;;;;;;;29.38;44.88;94230.75;4914971;29;7374;-61
2022/08/28 13:59:56;;;;;;;;;;;;;;;29.38;44.17;94231.50;4917865;28;9478;-61
2022/08/28 14:05:17;;;;;;;;;;;;;;;29.40;44.77;94231.69;4985897;28;6998;-61
2022/08/28 14:07:54;;;;;;;;;;;;;;;29.41;43.89;94233.16;4989787;28;6999;-60